createdAt,value
2019-06-08T00:04:03.704Z,71.33
2019-06-08T00:09:05.725Z,71.33
2019-06-08T00:14:07.731Z,70.87
2019-06-08T00:19:09.612Z,70.15
2019-06-08T00:24:11.507Z,69.94
2019-06-08T00:29:14.151Z,69.74
2019-06-08T00:34:16.602Z,70.43
2019-06-08T00:39:18.884Z,71.29
2019-06-08T00:44:21.281Z,70.26
2019-06-08T00:49:23.126Z,70.66
2019-06-08T00:54:25.795Z,70.75
2019-06-08T00:59:27.837Z,70.51
2019-06-08T01:04:29.661Z,70.23
2019-06-08T01:09:31.732Z,69.01
2019-06-08T01:14:33.690Z,69.31
2019-06-08T01:19:35.619Z,70.02
2019-06-08T01:24:37.464Z,69.69
2019-06-08T01:29:39.313Z,70.14
2019-06-08T01:34:41.241Z,71.36
2019-06-08T01:39:43.198Z,71.60
2019-06-08T01:44:45.112Z,71.62
2019-06-08T01:49:46.943Z,70.92
2019-06-08T01:54:48.790Z,72.45
2019-06-08T01:59:50.663Z,71.63
2019-06-08T02:04:52.521Z,71.83
2019-06-08T02:09:54.320Z,70.42
2019-06-08T02:14:56.219Z,70.31
2019-06-08T02:19:58.016Z,71.05
2019-06-08T02:24:59.890Z,72.12
2019-06-08T02:30:02.144Z,71.99
2019-06-08T02:35:06.160Z,70.85
2019-06-08T02:40:08.887Z,71.82
2019-06-08T02:45:10.812Z,71.74
2019-06-08T02:50:13.143Z,71.41
2019-06-08T02:55:15.294Z,72.03
2019-06-08T03:00:17.462Z,70.50
2019-06-08T03:05:19.463Z,71.22
2019-06-08T03:10:21.295Z,71.65
2019-06-08T03:15:31.616Z,72.57
2019-06-08T03:20:33.548Z,73.71
2019-06-08T03:25:45.894Z,73.37
2019-06-08T03:30:51.444Z,72.64
2019-06-08T03:35:55.413Z,73.61
2019-06-08T03:40:47.747Z,73.15
2019-06-08T03:45:49.584Z,72.57
2019-06-08T03:50:51.394Z,73.29
2019-06-08T03:55:53.246Z,73.59
2019-06-08T04:00:55.160Z,73.46
2019-06-08T04:05:57.059Z,72.46
2019-06-08T04:10:58.886Z,71.90
2019-06-08T04:16:00.784Z,71.92
2019-06-08T04:21:02.685Z,72.54
2019-06-08T04:26:04.511Z,73.39
2019-06-08T04:31:06.346Z,72.85
2019-06-08T04:36:08.226Z,71.98
2019-06-08T04:41:10.008Z,71.87
2019-06-08T04:46:11.912Z,71.20
2019-06-08T04:51:13.792Z,71.53
2019-06-08T04:56:15.648Z,71.59
2019-06-08T05:01:17.429Z,71.20
2019-06-08T05:06:19.340Z,70.01
2019-06-08T05:11:21.155Z,70.71
2019-06-08T05:16:23.109Z,69.22
2019-06-08T05:21:25.016Z,68.28
2019-06-08T05:26:28.205Z,66.70
2019-06-08T05:31:30.070Z,66.46
2019-06-08T05:36:34.134Z,65.01
2019-06-08T05:41:36.045Z,64.74
2019-06-08T05:46:37.995Z,65.72
2019-06-08T05:51:41.751Z,63.80
2019-06-08T05:56:43.911Z,63.41
2019-06-08T06:01:48.553Z,64.25
2019-06-08T06:06:50.997Z,61.79
2019-06-08T06:11:54.764Z,62.92
2019-06-08T06:16:56.857Z,62.39
2019-06-08T06:21:58.811Z,61.71
2019-06-08T06:27:00.772Z,59.82
2019-06-08T06:32:03.083Z,58.77
2019-06-08T06:37:05.071Z,57.73
2019-06-08T06:42:07.011Z,57.74
2019-06-08T06:47:08.890Z,57.33
2019-06-08T06:52:10.761Z,54.00
2019-06-08T06:57:12.629Z,56.48
2019-06-08T07:02:14.712Z,56.00
2019-06-08T07:07:16.619Z,56.37
2019-06-08T07:12:18.500Z,54.01
2019-06-08T07:17:20.423Z,50.99
2019-06-08T07:22:22.330Z,50.17
2019-06-08T07:27:25.327Z,52.49
2019-06-08T07:32:27.178Z,50.66
2019-06-08T07:37:29.162Z,49.32
2019-06-08T07:42:30.966Z,47.51
2019-06-08T07:47:33.772Z,48.26
2019-06-08T07:52:35.711Z,49.84
2019-06-08T07:57:37.626Z,48.33
2019-06-08T08:02:39.468Z,48.34
2019-06-08T08:07:41.327Z,50.50
2019-06-08T08:12:43.214Z,48.96
2019-06-08T08:17:45.168Z,46.17
2019-06-08T08:22:49.287Z,47.09
2019-06-08T08:27:51.905Z,43.45
2019-06-08T08:32:55.145Z,42.92
2019-06-08T08:38:02.346Z,48.63
2019-06-08T08:43:01.925Z,42.73
2019-06-08T08:48:20.393Z,42.08
2019-06-08T08:53:08.733Z,42.51
2019-06-08T08:58:10.404Z,41.81
2019-06-08T09:03:27.806Z,43.37
2019-06-08T09:08:18.096Z,46.04
2019-06-08T09:13:19.777Z,39.86
2019-06-08T09:18:21.802Z,39.61
2019-06-08T09:23:23.649Z,43.43
2019-06-08T09:28:25.596Z,44.88
2019-06-08T09:33:28.809Z,36.89
2019-06-08T09:38:30.879Z,41.57
2019-06-08T09:43:32.774Z,38.04
2019-06-08T09:48:34.789Z,38.72
2019-06-08T09:53:41.464Z,35.43
2019-06-08T09:58:41.451Z,38.14
2019-06-08T10:03:43.216Z,36.47
2019-06-08T10:08:48.066Z,34.18
2019-06-08T10:13:49.950Z,34.76
2019-06-08T10:18:54.863Z,37.15
2019-06-08T10:24:00.584Z,36.34
2019-06-08T10:29:03.666Z,39.07
2019-06-08T10:34:10.682Z,40.03
2019-06-08T10:39:11.313Z,38.73
2019-06-08T10:44:14.414Z,37.43
2019-06-08T10:49:18.923Z,36.20
2019-06-08T10:54:21.508Z,37.07
2019-06-08T10:59:23.554Z,37.57
2019-06-08T11:04:25.721Z,36.36
2019-06-08T11:09:28.594Z,38.11
2019-06-08T11:14:30.934Z,36.91
2019-06-08T11:19:37.521Z,33.97
2019-06-08T11:24:40.383Z,35.46
2019-06-08T11:29:42.765Z,38.24
2019-06-08T11:34:44.706Z,34.01
2019-06-08T11:39:49.065Z,37.79
2019-06-08T11:44:53.195Z,38.52
2019-06-08T11:49:57.526Z,37.14
2019-06-08T11:55:00.713Z,37.73
2019-06-08T12:00:21.874Z,38.01
2019-06-08T12:05:14.317Z,40.38
2019-06-08T12:10:17.774Z,39.48
2019-06-08T12:15:21.217Z,40.40
2019-06-08T12:20:24.414Z,39.53
2019-06-08T12:25:26.560Z,39.83
2019-06-08T12:30:29.691Z,42.27
2019-06-08T12:35:31.890Z,42.46
2019-06-08T12:40:34.033Z,41.41
2019-06-08T12:45:38.121Z,42.32
2019-06-08T12:50:39.901Z,40.26
2019-06-08T12:55:41.763Z,40.92
2019-06-08T13:00:48.075Z,40.10
2019-06-08T13:05:51.208Z,39.00
2019-06-08T13:10:53.426Z,38.83
2019-06-08T13:15:57.912Z,39.47
2019-06-08T13:21:15.280Z,38.38
2019-06-08T13:26:03.718Z,38.54
2019-06-08T13:31:07.911Z,38.62
2019-06-08T13:36:10.343Z,39.98
2019-06-08T13:41:12.934Z,40.31
2019-06-08T13:46:15.990Z,40.20
2019-06-08T13:51:21.008Z,40.12
2019-06-08T13:56:24.075Z,41.91
2019-06-08T14:01:30.401Z,42.94
2019-06-08T14:06:30.307Z,43.20
2019-06-08T14:11:32.374Z,42.92
2019-06-08T14:16:34.350Z,43.37
2019-06-08T14:21:41.595Z,43.76
2019-06-08T14:26:40.274Z,43.71
2019-06-08T14:31:42.140Z,44.22
2019-06-08T14:36:43.782Z,44.37
2019-06-08T14:41:49.215Z,43.34
2019-06-08T14:46:49.377Z,44.32
2019-06-08T14:51:52.011Z,43.41
2019-06-08T14:56:54.429Z,44.97
2019-06-08T15:01:56.305Z,45.31
2019-06-08T15:06:58.665Z,44.92
2019-06-08T15:12:01.861Z,44.80
2019-06-08T15:17:03.494Z,45.16
2019-06-08T15:22:05.411Z,44.82
2019-06-08T15:27:07.868Z,42.80
2019-06-08T15:32:12.400Z,43.83
2019-06-08T15:37:15.364Z,43.28
2019-06-08T15:42:18.004Z,42.28
2019-06-08T15:47:22.178Z,42.81
2019-06-08T15:52:24.470Z,42.49
2019-06-08T15:57:29.601Z,43.17
2019-06-08T16:02:31.669Z,42.84
2019-06-08T16:07:35.622Z,42.97
2019-06-08T16:12:41.124Z,43.24
2019-06-08T16:17:44.050Z,43.50
2019-06-08T16:22:47.585Z,42.99
2019-06-08T16:27:49.981Z,43.87
2019-06-08T16:32:51.939Z,43.36
2019-06-08T16:37:54.998Z,43.82
2019-06-08T16:42:56.995Z,44.40
2019-06-08T16:48:00.083Z,45.15
2019-06-08T16:53:01.976Z,45.54
2019-06-08T16:58:04.017Z,46.00
2019-06-08T17:03:06.054Z,46.25
2019-06-08T17:08:08.215Z,46.93
2019-06-08T17:13:11.572Z,46.74
2019-06-08T17:18:13.987Z,47.09
2019-06-08T17:23:16.748Z,47.10
2019-06-08T17:28:18.679Z,48.40
2019-06-08T17:33:20.721Z,48.31
2019-06-08T17:38:22.484Z,48.34
2019-06-08T17:43:24.450Z,48.78
2019-06-08T17:48:26.384Z,49.01
2019-06-08T17:53:28.332Z,49.77
2019-06-08T17:58:33.016Z,51.94
2019-06-08T18:03:36.095Z,51.98
2019-06-08T18:08:40.942Z,52.79
2019-06-08T18:13:44.156Z,53.48
2019-06-08T18:18:48.049Z,53.68
2019-06-08T18:23:50.470Z,53.63
2019-06-08T18:28:55.070Z,54.45
2019-06-08T18:33:57.847Z,55.02
2019-06-08T18:39:00.586Z,56.58
2019-06-08T18:44:02.484Z,58.59
2019-06-08T18:49:08.070Z,58.66
2019-06-08T18:54:14.707Z,59.27
2019-06-08T18:59:14.023Z,60.56
2019-06-08T19:04:16.279Z,59.91
2019-06-08T19:09:18.252Z,60.74
2019-06-08T19:14:20.822Z,60.36
2019-06-08T19:19:22.985Z,59.94
2019-06-08T19:24:24.834Z,59.12
2019-06-08T19:29:27.942Z,60.88
2019-06-08T19:34:33.244Z,61.16
2019-06-08T19:39:36.272Z,63.49
2019-06-08T19:44:41.606Z,62.79
2019-06-08T19:49:42.833Z,62.63
2019-06-08T19:54:47.075Z,64.43
2019-06-08T19:59:49.643Z,63.33
2019-06-08T20:04:53.105Z,63.79
2019-06-08T20:09:57.122Z,62.40
2019-06-08T20:14:59.344Z,64.32
2019-06-08T20:20:04.613Z,62.95
2019-06-08T20:25:10.604Z,63.29
2019-06-08T20:30:12.491Z,63.90
2019-06-08T20:35:17.314Z,64.79
2019-06-08T20:40:18.707Z,64.70
2019-06-08T20:45:20.642Z,64.56
2019-06-08T20:50:22.491Z,64.96
2019-06-08T20:55:24.422Z,65.13
2019-06-08T21:00:26.338Z,66.22
2019-06-08T21:05:28.233Z,65.72
2019-06-08T21:10:30.109Z,66.38
2019-06-08T21:15:31.980Z,66.66
2019-06-08T21:20:33.830Z,66.17
2019-06-08T21:25:37.264Z,65.79
2019-06-08T21:30:39.451Z,65.44
2019-06-08T21:35:41.303Z,65.91
2019-06-08T21:40:43.259Z,66.61
2019-06-08T21:45:47.369Z,66.01
2019-06-08T21:50:51.366Z,66.92
2019-06-08T21:55:54.171Z,67.51
2019-06-08T22:00:59.141Z,68.53
2019-06-08T22:06:00.246Z,68.52
2019-06-08T22:11:02.684Z,68.38
2019-06-08T22:16:04.537Z,68.52
2019-06-08T22:21:08.120Z,68.31
2019-06-08T22:26:11.387Z,68.05
2019-06-08T22:31:13.244Z,68.63
2019-06-08T22:36:15.052Z,69.08
2019-06-08T22:41:17.375Z,69.19
2019-06-08T22:46:19.223Z,69.45
2019-06-08T22:51:21.078Z,68.63
2019-06-08T22:56:22.914Z,68.67
2019-06-08T23:01:24.806Z,68.81
2019-06-08T23:06:28.128Z,69.88
2019-06-08T23:11:30.152Z,69.95
2019-06-08T23:16:31.953Z,69.99
2019-06-08T23:21:33.765Z,69.99
2019-06-08T23:26:37.267Z,70.23
2019-06-08T23:31:39.306Z,71.06
2019-06-08T23:36:51.763Z,71.39
2019-06-08T23:41:44.955Z,70.61
2019-06-08T23:46:47.683Z,71.84
2019-06-08T23:51:49.623Z,70.85
2019-06-08T23:56:51.443Z,70.34
